Time;durP1;ratioP1;P1;durP2;ratioP2;P2;SDS_P1;SDS_P2;PMS_P1;PMS_P2;Temp;Humidity;BMP_temperature;BMP_pressure;BME280_temperature;BME280_humidity;BME280_pressure;Samples;Min_cycle;Max_cycle;Signal;HPM_P1;HPM_P2
2023/12/29 00:01:45;;;;;;;;;;;;;;;28.68;20.00;98076.06;5104030;28;19965;-96
2023/12/29 00:04:11;;;;;;;;;;;;;;;28.69;19.92;98076.84;5101264;28;19920;-95
2023/12/29 00:06:38;;;;;;;;;;;;;;;28.82;19.93;98071.88;5088702;28;19923;-95
2023/12/29 00:09:04;;;;;;;;;;;;;;;28.84;20.06;98074.25;5106329;28;20286;-95
2023/12/29 00:11:30;;;;;;;;;;;;;;;28.49;20.26;98073.63;5091140;28;19927;-95
2023/12/29 00:13:56;;;;;;;;;;;;;;;28.48;20.30;98078.47;5107115;27;20015;-95
2023/12/29 00:16:22;;;;;;;;;;;;;;;28.71;20.03;98080.00;5108425;28;20475;-96
2023/12/29 00:18:48;;;;;;;;;;;;;;;28.90;19.73;98084.47;5106957;28;19931;-96
2023/12/29 00:21:14;;;;;;;;;;;;;;;29.03;19.71;98076.66;5091588;28;19931;-96
2023/12/29 00:23:40;;;;;;;;;;;;;;;28.99;19.71;98075.22;5108074;28;19928;-96
2023/12/29 00:26:06;;;;;;;;;;;;;;;28.87;20.05;98082.56;5104361;28;19916;-96
2023/12/29 00:28:32;;;;;;;;;;;;;;;28.96;19.82;98073.34;5107013;28;19920;-96
2023/12/29 00:30:58;;;;;;;;;;;;;;;28.78;20.16;98074.06;5106711;27;19960;-95
2023/12/29 00:33:24;;;;;;;;;;;;;;;28.80;20.08;98077.19;5108545;28;19928;-96
2023/12/29 00:35:50;;;;;;;;;;;;;;;28.50;20.64;98072.34;5090299;28;20320;-96
2023/12/29 00:38:16;;;;;;;;;;;;;;;28.45;20.57;98076.56;5091298;28;19916;-96
2023/12/29 00:40:42;;;;;;;;;;;;;;;27.90;21.18;98072.63;5103646;28;19973;-96
2023/12/29 00:43:08;;;;;;;;;;;;;;;28.16;21.03;98067.66;5108868;28;20290;-95
2023/12/29 00:45:35;;;;;;;;;;;;;;;28.15;20.97;98068.09;5105769;27;19935;-94
2023/12/29 00:48:02;;;;;;;;;;;;;;;28.44;20.71;98065.75;5090546;28;19924;-94
2023/12/29 00:50:28;;;;;;;;;;;;;;;28.38;20.75;98053.50;5105160;28;19993;-95
2023/12/29 00:52:54;;;;;;;;;;;;;;;28.72;20.30;98059.78;5106918;28;19920;-93
2023/12/29 00:55:20;;;;;;;;;;;;;;;28.88;20.35;98052.25;5106374;28;19920;-96
2023/12/29 00:57:46;;;;;;;;;;;;;;;28.67;20.45;98051.09;5105424;28;19924;-95
2023/12/29 01:00:12;;;;;;;;;;;;;;;28.62;20.39;98049.69;5108709;28;20006;-95
2023/12/29 01:02:39;;;;;;;;;;;;;;;28.38;20.67;98045.78;5106848;28;19934;-95
2023/12/29 01:05:05;;;;;;;;;;;;;;;28.38;20.43;98045.78;5106313;27;19924;-95
2023/12/29 01:07:31;;;;;;;;;;;;;;;28.18;20.78;98047.41;5103331;28;20365;-95
2023/12/29 01:09:57;;;;;;;;;;;;;;;28.26;20.81;98052.34;5082745;28;19920;-94
2023/12/29 01:12:23;;;;;;;;;;;;;;;28.05;20.92;98041.88;5089302;28;20368;-94
2023/12/29 01:14:49;;;;;;;;;;;;;;;27.79;21.03;98046.88;5095309;28;19974;-94
2023/12/29 01:17:15;;;;;;;;;;;;;;;28.15;20.90;98042.69;5107981;28;19924;-95
2023/12/29 01:19:41;;;;;;;;;;;;;;;28.49;20.61;98034.06;5104196;28;19919;-94
2023/12/29 01:22:07;;;;;;;;;;;;;;;28.74;20.17;98034.66;5106465;28;20397;-93
2023/12/29 01:24:33;;;;;;;;;;;;;;;28.43;20.62;98028.22;5106847;28;19932;-95
2023/12/29 01:26:59;;;;;;;;;;;;;;;28.45;20.72;98024.97;5088162;28;20367;-95
2023/12/29 01:29:25;;;;;;;;;;;;;;;28.45;20.67;98036.25;5107901;28;19924;-95
2023/12/29 01:31:51;;;;;;;;;;;;;;;28.10;20.92;98029.19;5088541;28;20138;-95
2023/12/29 01:34:17;;;;;;;;;;;;;;;28.12;21.11;98026.69;5105871;28;19920;-95
2023/12/29 01:36:43;;;;;;;;;;;;;;;27.39;21.53;98035.44;5105620;28;19924;-94
2023/12/29 01:39:09;;;;;;;;;;;;;;;27.63;21.45;98029.34;5104533;28;19915;-94
2023/12/29 01:41:35;;;;;;;;;;;;;;;27.14;22.16;98032.66;5103689;28;20283;-94
2023/12/29 01:44:01;;;;;;;;;;;;;;;27.50;21.71;98020.94;5107040;28;19972;-95
2023/12/29 01:46:28;;;;;;;;;;;;;;;28.00;21.22;98017.88;5106777;28;19966;-95
2023/12/29 01:48:55;;;;;;;;;;;;;;;28.29;20.96;98013.88;5106531;28;19959;-96
2023/12/29 01:51:23;;;;;;;;;;;;;;;28.24;21.00;98018.09;5105195;28;19924;-95
2023/12/29 01:53:50;;;;;;;;;;;;;;;28.43;20.75;98018.97;5098481;28;20374;-96
2023/12/29 01:56:16;;;;;;;;;;;;;;;28.74;20.40;98005.59;5105214;28;19924;-94
2023/12/29 01:58:48;;;;;;;;;;;;;;;28.65;20.29;97999.94;5100354;27;19962;-96
2023/12/29 02:01:14;;;;;;;;;;;;;;;28.61;20.35;98000.06;5083773;28;19939;-96
2023/12/29 02:03:40;;;;;;;;;;;;;;;28.96;20.04;98000.63;5100317;28;19927;-96
2023/12/29 02:06:07;;;;;;;;;;;;;;;28.49;20.46;97983.22;5101790;28;19935;-96
2023/12/29 02:08:33;;;;;;;;;;;;;;;28.38;20.39;97999.84;5082122;28;20275;-96
2023/12/29 02:10:59;;;;;;;;;;;;;;;28.28;20.55;97999.00;5104984;27;19926;-96
2023/12/29 02:13:25;;;;;;;;;;;;;;;27.44;23.03;98002.25;5105314;28;20019;-96
2023/12/29 02:15:54;;;;;;;;;;;;;;;27.20;21.85;97993.41;5099912;28;20055;-95
2023/12/29 02:18:21;;;;;;;;;;;;;;;27.68;21.43;97978.75;5083921;28;19962;-95
2023/12/29 02:20:47;;;;;;;;;;;;;;;28.00;21.05;97974.72;5104813;28;19927;-95
2023/12/29 02:23:13;;;;;;;;;;;;;;;27.52;21.31;97966.88;5100826;28;19920;-94
2023/12/29 02:25:39;;;;;;;;;;;;;;;27.90;20.98;97970.25;5103852;28;19966;-95
2023/12/29 02:28:11;;;;;;;;;;;;;;;27.63;21.40;97970.91;5101657;28;20394;-96
2023/12/29 02:30:37;;;;;;;;;;;;;;;27.37;21.74;97978.72;5102969;27;19959;-95
2023/12/29 02:33:09;;;;;;;;;;;;;;;27.97;21.23;97982.06;5098787;28;19920;-96
2023/12/29 02:35:39;;;;;;;;;;;;;;;27.46;21.63;97982.84;5103787;28;19971;-96
2023/12/29 02:38:05;;;;;;;;;;;;;;;27.84;21.21;97977.75;5083744;28;20017;-96
2023/12/29 02:40:32;;;;;;;;;;;;;;;28.04;21.11;97978.19;5105016;28;19927;-96
2023/12/29 02:42:58;;;;;;;;;;;;;;;28.14;20.90;97974.16;5086435;28;19920;-96
2023/12/29 02:45:24;;;;;;;;;;;;;;;28.19;20.84;97975.59;5102962;28;19923;-96
2023/12/29 02:47:50;;;;;;;;;;;;;;;28.38;20.70;97980.81;5081821;28;19927;-96
2023/12/29 02:50:16;;;;;;;;;;;;;;;28.63;20.53;97977.81;5101837;28;20018;-96
2023/12/29 02:52:42;;;;;;;;;;;;;;;28.33;20.58;97964.50;5100294;28;19926;-96
2023/12/29 02:55:08;;;;;;;;;;;;;;;28.27;20.79;97965.56;5084569;28;19920;-96
2023/12/29 02:57:34;;;;;;;;;;;;;;;28.26;20.85;97961.97;5101004;28;19916;-96
2023/12/29 03:00:00;;;;;;;;;;;;;;;28.53;20.57;97964.09;5106274;28;20022;-95
2023/12/29 03:02:27;;;;;;;;;;;;;;;28.63;20.47;97955.22;5103938;27;19927;-96
2023/12/29 03:04:53;;;;;;;;;;;;;;;28.69;20.10;97958.97;5104796;28;20664;-95
2023/12/29 03:07:19;;;;;;;;;;;;;;;28.49;20.22;97955.78;5102258;28;19976;-95
2023/12/29 03:09:45;;;;;;;;;;;;;;;28.41;20.23;97960.13;5105257;28;20386;-96
2023/12/29 03:12:11;;;;;;;;;;;;;;;28.30;20.56;97959.00;5088774;28;20011;-96
2023/12/29 03:14:37;;;;;;;;;;;;;;;27.94;20.87;97963.22;5087268;28;20356;-95
2023/12/29 03:17:03;;;;;;;;;;;;;;;28.09;20.55;97960.66;5105397;28;19946;-96
2023/12/29 03:19:29;;;;;;;;;;;;;;;28.17;20.62;97952.69;5107084;28;20299;-96
2023/12/29 03:21:55;;;;;;;;;;;;;;;28.27;20.28;97957.88;5103930;28;19920;-95
2023/12/29 03:24:21;;;;;;;;;;;;;;;28.43;20.03;97948.34;5104841;28;19927;-96
2023/12/29 03:26:47;;;;;;;;;;;;;;;28.18;20.27;97951.41;5086899;28;19920;-96
2023/12/29 03:29:13;;;;;;;;;;;;;;;28.40;20.07;97938.78;5105182;28;19920;-96
2023/12/29 03:31:39;;;;;;;;;;;;;;;28.19;20.03;97944.53;5084856;28;20286;-95
2023/12/29 03:34:05;;;;;;;;;;;;;;;28.47;19.56;97937.72;5102662;28;19971;-95
2023/12/29 03:36:31;;;;;;;;;;;;;;;28.31;20.02;97935.16;5085810;28;19973;-95
2023/12/29 03:38:57;;;;;;;;;;;;;;;28.57;19.56;97939.28;5101383;28;19988;-96
2023/12/29 03:41:23;;;;;;;;;;;;;;;28.56;19.50;97937.72;5086644;28;19956;-95
2023/12/29 03:43:50;;;;;;;;;;;;;;;28.49;19.51;97926.72;5105816;28;19926;-95
2023/12/29 03:46:22;;;;;;;;;;;;;;;28.36;19.52;97929.69;5104114;28;19946;-95
2023/12/29 03:48:48;;;;;;;;;;;;;;;28.56;19.28;97926.44;5107990;28;20014;-96
2023/12/29 03:51:15;;;;;;;;;;;;;;;28.45;19.28;97932.50;5092697;28;20307;-96
2023/12/29 03:53:41;;;;;;;;;;;;;;;28.62;19.04;97928.19;5108361;27;20433;-96
2023/12/29 03:56:08;;;;;;;;;;;;;;;28.58;19.10;97932.41;5109911;28;19927;-96
2023/12/29 03:58:37;;;;;;;;;;;;;;;28.68;18.97;97937.59;5090199;28;19916;-96
2023/12/29 04:01:03;;;;;;;;;;;;;;;28.63;19.00;97920.50;5091945;28;19953;-96
2023/12/29 04:03:29;;;;;;;;;;;;;;;28.48;18.84;97925.16;5100727;28;19942;-95
2023/12/29 04:05:55;;;;;;;;;;;;;;;28.51;18.84;97921.41;5110110;28;19930;-95
2023/12/29 04:08:22;;;;;;;;;;;;;;;28.44;18.94;97921.69;5110262;28;19972;-95
2023/12/29 04:10:48;;;;;;;;;;;;;;;28.50;18.75;97917.78;5110830;27;20393;-95
2023/12/29 04:13:14;;;;;;;;;;;;;;;28.73;18.52;97919.25;5092975;28;20331;-96
2023/12/29 04:15:40;;;;;;;;;;;;;;;28.61;18.45;97917.38;5091876;28;19928;-96
2023/12/29 04:18:06;;;;;;;;;;;;;;;28.68;18.38;97917.84;5108607;28;20382;-96
2023/12/29 04:20:32;;;;;;;;;;;;;;;28.70;18.27;97920.19;5106586;28;19931;-96
2023/12/29 04:22:59;;;;;;;;;;;;;;;28.63;18.30;97914.84;5092681;22;20063;-89
2023/12/29 04:25:25;;;;;;;;;;;;;;;28.33;18.41;97922.16;5101319;28;19932;-89
2023/12/29 04:27:51;;;;;;;;;;;;;;;28.36;18.43;97915.56;5102459;27;19935;-90
2023/12/29 04:30:17;;;;;;;;;;;;;;;28.30;18.67;97916.63;5068035;28;20388;-89
2023/12/29 04:32:43;;;;;;;;;;;;;;;28.31;18.47;97909.75;5084545;28;19919;-90
2023/12/29 04:35:12;;;;;;;;;;;;;;;28.18;18.76;97906.25;5082362;28;20287;-90
2023/12/29 04:37:38;;;;;;;;;;;;;;;28.24;18.63;97905.16;5086441;28;19928;-90
2023/12/29 04:40:05;;;;;;;;;;;;;;;28.36;18.36;97901.44;5091171;28;20410;-89
2023/12/29 04:42:31;;;;;;;;;;;;;;;28.56;18.39;97898.97;5095431;28;19919;-89
2023/12/29 04:44:57;;;;;;;;;;;;;;;28.60;18.30;97901.66;5091926;28;19947;-90
2023/12/29 04:47:23;;;;;;;;;;;;;;;28.68;18.24;97909.34;5096106;28;20015;-88
2023/12/29 04:49:49;;;;;;;;;;;;;;;28.57;18.27;97888.44;5092754;28;19924;-89
2023/12/29 04:52:15;;;;;;;;;;;;;;;28.38;18.59;97881.22;5093601;28;19928;-89
2023/12/29 04:54:41;;;;;;;;;;;;;;;28.68;18.26;97883.16;5092284;28;19982;-90
2023/12/29 04:57:07;;;;;;;;;;;;;;;28.78;18.04;97879.06;5095968;28;20312;-90
2023/12/29 04:59:33;;;;;;;;;;;;;;;28.86;18.10;97877.50;5093419;28;19920;-89
2023/12/29 05:01:58;;;;;;;;;;;;;;;28.72;18.20;97895.09;5097065;28;19963;-89
2023/12/29 05:04:27;;;;;;;;;;;;;;;28.79;18.15;97888.34;5095642;28;19916;-90
2023/12/29 05:06:53;;;;;;;;;;;;;;;28.86;18.02;97882.38;5093502;28;19927;-90
2023/12/29 05:09:19;;;;;;;;;;;;;;;28.97;18.02;97886.28;5095874;28;20346;-89
2023/12/29 05:11:45;;;;;;;;;;;;;;;28.93;17.94;97894.16;5095721;28;19924;-89
2023/12/29 05:14:11;;;;;;;;;;;;;;;28.44;18.49;97890.63;5095696;28;19934;-89
2023/12/29 05:16:37;;;;;;;;;;;;;;;28.65;18.26;97882.06;5094524;28;19920;-89
2023/12/29 05:19:03;;;;;;;;;;;;;;;28.27;18.52;97880.84;5091272;28;20380;-89
2023/12/29 05:21:30;;;;;;;;;;;;;;;28.48;18.74;97886.41;5092348;28;19951;-89
2023/12/29 05:23:56;;;;;;;;;;;;;;;28.79;18.37;97879.84;5093466;28;21393;-89
2023/12/29 05:26:22;;;;;;;;;;;;;;;28.88;18.45;97891.16;5102495;28;19924;-90
2023/12/29 05:28:49;;;;;;;;;;;;;;;28.31;18.62;97887.16;5108408;28;19920;-91
2023/12/29 05:31:15;;;;;;;;;;;;;;;28.66;18.18;97889.25;5097592;28;19927;-91
2023/12/29 05:33:42;;;;;;;;;;;;;;;28.48;18.82;97882.78;5103943;28;20056;-91
2023/12/29 05:36:09;;;;;;;;;;;;;;;28.22;18.70;97868.16;5100685;28;19920;-91
2023/12/29 05:38:36;;;;;;;;;;;;;;;28.08;18.78;97879.28;5096759;28;19920;-91
2023/12/29 05:41:04;;;;;;;;;;;;;;;28.26;18.80;97882.91;5100651;28;19928;-91
2023/12/29 05:43:30;;;;;;;;;;;;;;;28.14;19.12;97886.66;5079994;28;19983;-91
2023/12/29 05:45:57;;;;;;;;;;;;;;;28.08;19.34;97887.72;5099729;28;19916;-91
2023/12/29 05:48:23;;;;;;;;;;;;;;;27.91;19.63;97879.47;5105135;28;19926;-91
2023/12/29 05:50:50;;;;;;;;;;;;;;;27.92;19.56;97878.22;5092519;28;19932;-91
2023/12/29 05:53:16;;;;;;;;;;;;;;;27.48;20.14;97888.06;5104005;28;19923;-91
2023/12/29 05:55:43;;;;;;;;;;;;;;;27.87;20.00;97890.13;5084715;28;19928;-92
2023/12/29 05:58:09;;;;;;;;;;;;;;;27.49;20.22;97880.41;5098175;28;19942;-90
2023/12/29 06:00:36;;;;;;;;;;;;;;;26.90;21.06;97887.03;5094526;28;19969;-89
2023/12/29 06:03:04;;;;;;;;;;;;;;;27.17;20.86;97884.38;5095096;28;19920;-90
2023/12/29 06:05:30;;;;;;;;;;;;;;;26.73;21.20;97886.38;5092949;28;19963;-90
2023/12/29 06:07:56;;;;;;;;;;;;;;;27.65;20.65;97889.41;5068380;28;19920;-91
2023/12/29 06:10:22;;;;;;;;;;;;;;;27.97;20.47;97886.09;5092578;28;19927;-91
2023/12/29 06:12:48;;;;;;;;;;;;;;;28.55;20.14;97893.78;5092791;28;20000;-91
2023/12/29 06:15:14;;;;;;;;;;;;;;;27.83;20.48;97905.63;5095053;28;19953;-88
2023/12/29 06:17:41;;;;;;;;;;;;;;;27.81;20.58;97894.03;5093538;28;19920;-89
2023/12/29 06:20:09;;;;;;;;;;;;;;;28.08;20.33;97891.31;5075004;28;19973;-90
2023/12/29 06:22:41;;;;;;;;;;;;;;;28.27;20.43;97889.34;5095690;28;19920;-90
2023/12/29 06:25:11;;;;;;;;;;;;;;;28.83;19.72;97891.78;5092095;28;19963;-89
2023/12/29 06:27:38;;;;;;;;;;;;;;;28.47;20.31;97898.94;5093841;28;20288;-89
2023/12/29 06:30:05;;;;;;;;;;;;;;;28.55;20.13;97893.78;5092837;28;19920;-90
2023/12/29 06:32:31;;;;;;;;;;;;;;;28.20;20.78;97895.28;5092751;28;20015;-89
2023/12/29 06:34:57;;;;;;;;;;;;;;;27.73;21.41;97895.53;5093012;28;20401;-90
2023/12/29 06:37:23;;;;;;;;;;;;;;;26.96;24.82;97891.59;5094949;28;19920;-90
2023/12/29 06:39:49;;;;;;;;;;;;;;;27.49;22.54;97880.41;5094693;28;19920;-89
2023/12/29 06:42:15;;;;;;;;;;;;;;;27.41;22.24;97888.34;5096819;28;20002;-91
2023/12/29 06:44:41;;;;;;;;;;;;;;;26.87;22.97;97890.75;5094195;28;19924;-90
2023/12/29 06:47:07;;;;;;;;;;;;;;;27.40;22.44;97893.19;5092834;28;20015;-90
2023/12/29 06:49:36;;;;;;;;;;;;;;;26.77;23.24;97900.38;5095338;28;20015;-89
2023/12/29 06:52:02;;;;;;;;;;;;;;;27.13;23.04;97909.91;5091404;28;19926;-89
2023/12/29 06:54:28;;;;;;;;;;;;;;;27.52;22.64;97905.63;5088300;28;19920;-89
2023/12/29 06:56:54;;;;;;;;;;;;;;;28.21;21.92;97908.16;5090219;28;19924;-91
2023/12/29 06:59:20;;;;;;;;;;;;;;;28.23;21.63;97909.25;5092013;28;19928;-90
2023/12/29 07:01:46;;;;;;;;;;;;;;;28.36;21.66;97909.91;5091497;28;20019;-91
2023/12/29 07:04:13;;;;;;;;;;;;;;;28.45;21.56;97901.44;5096871;28;20390;-93
2023/12/29 07:06:39;;;;;;;;;;;;;;;29.05;20.92;97913.00;5091456;28;19926;-91
2023/12/29 07:09:05;;;;;;;;;;;;;;;28.98;20.93;97912.50;5090862;28;20003;-92
2023/12/29 07:11:31;;;;;;;;;;;;;;;27.94;21.89;97906.78;5091017;28;19927;-92
2023/12/29 07:13:57;;;;;;;;;;;;;;;27.97;22.28;97905.06;5091456;28;19920;-91
2023/12/29 07:16:23;;;;;;;;;;;;;;;28.63;21.71;97909.22;5092012;28;19927;-91
2023/12/29 07:18:49;;;;;;;;;;;;;;;28.47;21.50;97904.59;5090863;28;19936;-91
2023/12/29 07:21:16;;;;;;;;;;;;;;;28.80;21.41;97893.50;5094078;28;24970;-91
2023/12/29 07:23:42;;;;;;;;;;;;;;;28.64;21.32;97891.78;5091559;28;20287;-91
2023/12/29 07:26:08;;;;;;;;;;;;;;;28.48;21.76;97892.03;5094131;28;19924;-91
2023/12/29 07:28:34;;;;;;;;;;;;;;;28.61;21.47;97904.00;5094128;28;19924;-90
2023/12/29 07:31:01;;;;;;;;;;;;;;;28.49;21.75;97893.63;5091680;28;19920;-90
2023/12/29 07:33:27;;;;;;;;;;;;;;;28.94;21.31;97906.25;5091369;28;19954;-90
2023/12/29 07:35:53;;;;;;;;;;;;;;;29.37;20.95;97915.19;5074583;28;20039;-91
2023/12/29 07:38:19;;;;;;;;;;;;;;;29.73;20.64;97908.66;5074390;28;19962;-90
2023/12/29 07:40:47;;;;;;;;;;;;;;;29.11;21.30;97924.44;5100963;28;19920;-91
2023/12/29 07:43:14;;;;;;;;;;;;;;;28.99;21.08;97923.34;5089723;28;19924;-90
2023/12/29 07:45:40;;;;;;;;;;;;;;;28.12;21.97;97936.34;5093788;28;19924;-91
2023/12/29 07:48:06;;;;;;;;;;;;;;;28.46;21.65;97927.66;5093096;28;19920;-91
2023/12/29 07:50:32;;;;;;;;;;;;;;;27.98;22.25;97929.22;5090062;28;20296;-91
2023/12/29 07:53:02;;;;;;;;;;;;;;;28.28;21.85;97928.41;5092581;28;19927;-90
2023/12/29 07:55:29;;;;;;;;;;;;;;;27.96;23.04;97914.75;5093487;28;20298;-91
2023/12/29 07:57:55;;;;;;;;;;;;;;;27.87;22.17;97909.88;5091363;28;19927;-91
2023/12/29 08:00:21;;;;;;;;;;;;;;;27.36;22.33;97908.63;5091931;28;19928;-91
2023/12/29 08:02:47;;;;;;;;;;;;;;;27.09;23.00;97926.16;5093388;28;20026;-91
2023/12/29 08:05:15;;;;;;;;;;;;;;;27.43;22.70;97925.31;5093403;28;20316;-91
2023/12/29 08:07:41;;;;;;;;;;;;;;;27.73;22.14;97927.38;5091427;28;19924;-91
2023/12/29 08:10:07;;;;;;;;;;;;;;;27.79;21.99;97921.91;5092608;28;19920;-90
2023/12/29 08:12:34;;;;;;;;;;;;;;;28.46;21.41;97919.97;5092419;28;19916;-90
2023/12/29 08:15:00;;;;;;;;;;;;;;;27.96;21.62;97912.72;5090721;28;19964;-91
2023/12/29 08:17:26;;;;;;;;;;;;;;;27.66;21.62;97919.19;5092940;28;19923;-91
2023/12/29 08:19:52;;;;;;;;;;;;;;;28.03;21.54;97920.94;5091379;28;19927;-91
2023/12/29 08:22:19;;;;;;;;;;;;;;;28.13;21.63;97932.25;5093081;28;19921;-92
2023/12/29 08:24:45;;;;;;;;;;;;;;;27.75;21.90;97929.75;5090305;28;20023;-91
2023/12/29 08:27:14;;;;;;;;;;;;;;;27.96;21.94;97924.03;5089215;28;20089;-91
2023/12/29 08:29:40;;;;;;;;;;;;;;;28.33;21.55;97935.47;5094160;28;19920;-91
2023/12/29 08:32:07;;;;;;;;;;;;;;;28.90;20.88;97934.66;5097266;28;24952;-92
2023/12/29 08:34:34;;;;;;;;;;;;;;;28.58;21.04;97929.56;5096327;28;19927;-91
2023/12/29 08:37:00;;;;;;;;;;;;;;;29.14;20.59;97932.78;5095414;28;19920;-91
2023/12/29 08:39:26;;;;;;;;;;;;;;;28.44;21.09;97925.31;5093958;28;20296;-90
2023/12/29 08:41:52;;;;;;;;;;;;;;;28.34;21.27;97925.75;5095484;28;19973;-91
2023/12/29 08:44:18;;;;;;;;;;;;;;;28.08;21.49;97931.63;5094916;28;19927;-91
2023/12/29 08:46:44;;;;;;;;;;;;;;;27.21;22.73;97930.94;5097397;28;20556;-91
2023/12/29 08:49:10;;;;;;;;;;;;;;;28.03;21.72;97939.91;5096689;28;19916;-91
2023/12/29 08:51:36;;;;;;;;;;;;;;;28.81;20.96;97937.47;5094766;28;19942;-91
2023/12/29 08:54:03;;;;;;;;;;;;;;;28.56;20.59;97937.72;5093889;28;19916;-91
2023/12/29 08:56:29;;;;;;;;;;;;;;;28.76;20.37;97940.91;5096735;28;19924;-91
2023/12/29 08:58:55;;;;;;;;;;;;;;;28.68;20.72;97943.25;5095266;28;19927;-91
2023/12/29 09:01:21;;;;;;;;;;;;;;;28.51;20.80;97947.63;5095142;28;20401;-90
2023/12/29 09:03:47;;;;;;;;;;;;;;;28.90;20.56;97939.50;5095220;28;19995;-91
2023/12/29 09:06:13;;;;;;;;;;;;;;;29.06;20.16;97947.69;5092571;28;19922;-91
2023/12/29 09:08:39;;;;;;;;;;;;;;;28.10;20.67;97931.16;5094375;28;19935;-92
2023/12/29 09:11:05;;;;;;;;;;;;;;;29.01;20.36;97946.28;5095417;28;20375;-92
2023/12/29 09:13:32;;;;;;;;;;;;;;;28.81;20.84;97945.94;5093363;28;19952;-92
2023/12/29 09:15:58;;;;;;;;;;;;;;;29.16;20.27;97941.56;5094265;28;19920;-91
2023/12/29 09:18:24;;;;;;;;;;;;;;;28.73;20.03;97933.38;5094438;28;19927;-91
2023/12/29 09:20:50;;;;;;;;;;;;;;;28.37;20.80;97939.72;5093296;28;19920;-91
2023/12/29 09:23:17;;;;;;;;;;;;;;;28.39;20.64;97942.88;5094343;28;19919;-90
2023/12/29 09:25:43;;;;;;;;;;;;;;;29.05;20.24;97935.59;5094053;28;20302;-90
2023/12/29 09:28:09;;;;;;;;;;;;;;;28.67;20.56;97946.56;5099277;28;19924;-91
2023/12/29 09:30:35;;;;;;;;;;;;;;;28.60;20.88;97935.56;5097233;28;19960;-91
2023/12/29 09:33:01;;;;;;;;;;;;;;;28.53;20.50;97928.16;5093411;28;20552;-91
2023/12/29 09:35:27;;;;;;;;;;;;;;;28.25;21.24;97931.38;5094780;28;19927;-91
2023/12/29 09:37:53;;;;;;;;;;;;;;;28.39;20.94;97925.94;5094789;28;19920;-91
2023/12/29 09:40:20;;;;;;;;;;;;;;;28.86;20.30;97919.91;5088181;28;20291;-90
2023/12/29 09:42:47;;;;;;;;;;;;;;;28.91;20.76;97907.97;5090436;28;20018;-90
2023/12/29 09:45:13;;;;;;;;;;;;;;;29.65;19.72;97912.28;5093959;28;20408;-90
2023/12/29 09:47:41;;;;;;;;;;;;;;;29.31;19.75;97919.88;5094004;28;19923;-91
2023/12/29 09:50:09;;;;;;;;;;;;;;;29.09;20.22;97912.81;5073447;28;19920;-90
2023/12/29 09:52:36;;;;;;;;;;;;;;;29.04;19.90;97902.94;5093519;28;19924;-90
2023/12/29 09:55:03;;;;;;;;;;;;;;;29.40;19.56;97900.09;5094871;28;20379;-90
2023/12/29 09:57:29;;;;;;;;;;;;;;;29.58;19.73;97887.13;5093509;28;19959;-90
2023/12/29 09:59:56;;;;;;;;;;;;;;;29.71;19.33;97890.56;5097902;28;19926;-91
2023/12/29 10:02:22;;;;;;;;;;;;;;;29.62;19.30;97882.88;5100759;28;19920;-92
2023/12/29 10:04:48;;;;;;;;;;;;;;;29.98;19.34;97888.44;5102364;28;19920;-92
2023/12/29 10:07:24;;;;;;;;;;;;;;;29.91;19.32;97879.50;5095265;28;19964;-93
2023/12/29 10:09:52;;;;;;;;;;;;;;;29.98;18.83;97882.00;5104506;28;19920;-92
2023/12/29 10:12:19;;;;;;;;;;;;;;;29.83;19.07;97886.75;5097349;28;19942;-90
2023/12/29 10:14:49;;;;;;;;;;;;;;;29.93;19.00;97877.75;5095998;28;19967;-90
2023/12/29 10:17:25;;;;;;;;;;;;;;;29.99;18.90;97873.00;5094223;28;20379;-91
2023/12/29 10:20:02;;;;;;;;;;;;;;;29.97;19.17;97863.41;5098837;28;19944;-90
2023/12/29 10:22:40;;;;;;;;;;;;;;;30.02;18.76;97865.59;5095645;28;20375;-88
2023/12/29 10:25:07;;;;;;;;;;;;;;;30.23;18.75;97875.06;5092173;28;19939;-90
2023/12/29 10:27:33;;;;;;;;;;;;;;;30.18;18.88;97864.44;5092967;28;19931;-92
2023/12/29 10:29:59;;;;;;;;;;;;;;;30.06;18.65;97867.00;5093606;28;19963;-89
2023/12/29 10:32:28;;;;;;;;;;;;;;;29.76;19.10;97870.13;5092049;28;20352;-89
2023/12/29 10:35:10;;;;;;;;;;;;;;;29.63;19.26;97869.53;5094147;28;19920;-88
2023/12/29 10:37:37;;;;;;;;;;;;;;;29.57;19.22;97860.13;5092043;28;19927;-87
2023/12/29 10:40:03;;;;;;;;;;;;;;;29.46;19.24;97848.50;5092994;28;20027;-88
2023/12/29 10:42:29;;;;;;;;;;;;;;;30.07;18.90;97848.75;5093330;28;19924;-86
2023/12/29 10:45:06;;;;;;;;;;;;;;;29.87;18.78;97851.34;5094999;28;19920;-88
2023/12/29 10:47:33;;;;;;;;;;;;;;;29.51;19.06;97845.81;5092568;28;19966;-88
2023/12/29 10:50:02;;;;;;;;;;;;;;;29.56;19.40;97839.53;5092925;28;20480;-88
2023/12/29 10:52:28;;;;;;;;;;;;;;;29.44;19.15;97840.50;5093091;28;19920;-87
2023/12/29 10:55:07;;;;;;;;;;;;;;;29.78;19.25;97850.63;5092879;28;20289;-88
2023/12/29 10:57:34;;;;;;;;;;;;;;;29.49;19.56;97827.75;5091236;28;19966;-88
2023/12/29 11:00:00;;;;;;;;;;;;;;;29.59;19.54;97832.13;5091736;28;20056;-87
2023/12/29 11:02:27;;;;;;;;;;;;;;;29.65;19.18;97824.56;5091032;28;19939;-89
2023/12/29 11:05:11;;;;;;;;;;;;;;;29.14;19.76;97830.97;5092328;28;19977;-89
2023/12/29 11:07:38;;;;;;;;;;;;;;;30.15;19.37;97828.56;5092776;28;19944;-90
2023/12/29 11:10:05;;;;;;;;;;;;;;;30.35;18.92;97829.56;5093176;28;20019;-89
2023/12/29 11:12:32;;;;;;;;;;;;;;;29.60;19.18;97814.66;5069404;28;19923;-89
2023/12/29 11:14:59;;;;;;;;;;;;;;;29.87;19.07;97819.44;5091256;28;19927;-89
2023/12/29 11:17:26;;;;;;;;;;;;;;;30.06;19.41;97821.69;5072837;28;19915;-89
2023/12/29 11:19:52;;;;;;;;;;;;;;;30.14;19.10;97827.78;5091127;28;19924;-88
2023/12/29 11:22:19;;;;;;;;;;;;;;;30.31;18.82;97830.97;5088214;28;19929;-88
2023/12/29 11:24:46;;;;;;;;;;;;;;;30.48;18.54;97812.31;5091836;28;20004;-90
2023/12/29 11:27:12;;;;;;;;;;;;;;;30.34;18.84;97815.88;5091425;28;20283;-89
2023/12/29 11:29:41;;;;;;;;;;;;;;;28.80;20.03;97817.19;5089138;28;19916;-89
2023/12/29 11:32:11;;;;;;;;;;;;;;;28.97;19.98;97820.47;5091884;28;19973;-89
2023/12/29 11:34:44;;;;;;;;;;;;;;;29.84;19.20;97814.75;5088786;28;20300;-90
2023/12/29 11:37:36;;;;;;;;;;;;;;;30.55;18.94;97812.72;5087252;28;19924;-89
2023/12/29 11:40:03;;;;;;;;;;;;;;;29.97;19.42;97812.47;5083068;28;19981;-89
2023/12/29 11:42:36;;;;;;;;;;;;;;;30.48;18.87;97815.91;5087240;28;19920;-90
2023/12/29 11:45:21;;;;;;;;;;;;;;;30.06;19.02;97818.84;5071057;28;20375;-89
2023/12/29 11:47:53;;;;;;;;;;;;;;;30.00;19.34;97817.16;5090978;28;19929;-89
2023/12/29 11:50:33;;;;;;;;;;;;;;;29.27;19.40;97814.63;5091563;28;19941;-89
2023/12/29 11:52:59;;;;;;;;;;;;;;;29.99;19.18;97815.63;5091948;28;19935;-90
2023/12/29 11:55:51;;;;;;;;;;;;;;;30.27;18.83;97814.16;5091139;28;20054;-90
2023/12/29 11:58:25;;;;;;;;;;;;;;;29.73;19.41;97805.97;5086842;28;19977;-89
2023/12/29 12:00:51;;;;;;;;;;;;;;;29.51;22.09;97805.44;5089425;28;20015;-90
2023/12/29 12:03:28;;;;;;;;;;;;;;;29.52;19.76;97807.00;5089580;28;19920;-88
2023/12/29 12:05:56;;;;;;;;;;;;;;;30.21;18.94;97810.44;5093430;28;20367;-89
2023/12/29 12:08:28;;;;;;;;;;;;;;;29.20;20.14;97811.34;5092926;28;19920;-90
2023/12/29 12:10:55;;;;;;;;;;;;;;;28.88;19.78;97820.50;5071370;28;19962;-89
2023/12/29 12:13:53;;;;;;;;;;;;;;;27.41;21.38;97823.50;5090623;28;19973;-90
2023/12/29 12:16:38;;;;;;;;;;;;;;;28.25;20.70;97819.22;5031550;28;19942;-89
2023/12/29 12:19:04;;;;;;;;;;;;;;;28.19;20.16;97820.31;5092376;28;20403;-89
2023/12/29 12:21:30;;;;;;;;;;;;;;;26.83;22.24;97828.91;5094278;28;19977;-89
2023/12/29 12:23:57;;;;;;;;;;;;;;;26.24;24.26;97824.16;5092539;28;19966;-89
2023/12/29 12:26:25;;;;;;;;;;;;;;;26.20;24.83;97823.50;5093452;28;20333;-90
2023/12/29 12:28:54;;;;;;;;;;;;;;;25.60;23.68;97816.28;5091980;28;20010;-88
2023/12/29 12:31:20;;;;;;;;;;;;;;;26.70;22.22;97814.84;5092642;28;20269;-88
2023/12/29 12:33:56;;;;;;;;;;;;;;;27.23;21.46;97803.63;5088673;28;19935;-89
2023/12/29 12:36:22;;;;;;;;;;;;;;;26.96;21.75;97811.91;5085629;28;19951;-89
2023/12/29 12:38:56;;;;;;;;;;;;;;;26.96;21.68;97812.72;5089301;28;20762;-88
2023/12/29 12:41:22;;;;;;;;;;;;;;;28.32;20.55;97804.00;5089488;28;19928;-88
2023/12/29 12:44:10;;;;;;;;;;;;;;;28.87;19.86;97801.97;5091614;28;19955;-89
2023/12/29 12:46:39;;;;;;;;;;;;;;;29.15;19.55;97809.91;5095614;28;20009;-90
2023/12/29 12:49:05;;;;;;;;;;;;;;;28.44;20.45;97805.91;5095000;28;20458;-88